Monte Maiz, Argentina
Current Conditions -  °F | °C
As of 7:00 PM on Sunday 23 Nov 2014 (Local Time) from SAOC Reporting Station
Clear Clear  
Wind Chill: 29°   Ceiling: Unl
Heat Index: 29°   Visibility: 6mi
Dew Point:   Wind: 28mph
Humidity: 23%   Direction: 360°N
Pressure: 29.56"   Gusts: 41mph
Location:  33.2°S, 62.6°W
Report Text: SAOC 232200Z 36024G36KT CAVOK 29/06 Q1001
Loading
Personal Weather Stations






























Interactive Weather Map New forecast layout! Learn more

10-Day Weather Forecast

Advertisements
Track Severe Weather on mobile